Time;durP1;ratioP1;P1;durP2;ratioP2;P2;SDS_P1;SDS_P2;PMS_P1;PMS_P2;Temp;Humidity;BMP_temperature;BMP_pressure;BME280_temperature;BME280_humidity;BME280_pressure;Samples;Min_cycle;Max_cycle;Signal;HPM_P1;HPM_P2
2022/05/05 00:02:18;;;;;;;25.23;9.18;;;8.90;99.90;;;;;;4975447;28;20030;-85
2022/05/05 00:04:44;;;;;;;19.58;8.52;;;8.90;99.90;;;;;;4972349;28;20090;-85
2022/05/05 00:07:09;;;;;;;18.27;8.35;;;8.90;99.90;;;;;;4975162;28;20570;-85
2022/05/05 00:09:36;;;;;;;21.23;8.25;;;8.90;99.90;;;;;;4976260;28;20031;-85
2022/05/05 00:14:45;;;;;;;19.13;8.68;;;8.90;99.90;;;;;;4994684;28;20069;-85
2022/05/05 00:17:11;;;;;;;14.55;8.57;;;8.90;99.90;;;;;;4979495;28;20022;-85
2022/05/05 00:19:38;;;;;;;21.08;7.95;;;8.90;99.90;;;;;;4977507;28;20023;-85
2022/05/05 00:22:05;;;;;;;17.45;9.13;;;8.90;99.90;;;;;;4968473;28;20030;-85
2022/05/05 00:24:32;;;;;;;30.25;9.32;;;8.90;99.90;;;;;;4979499;28;20467;-85
2022/05/05 00:26:58;;;;;;;19.17;9.32;;;8.90;99.90;;;;;;4979422;28;20490;-85
2022/05/05 00:29:24;;;;;;;21.17;9.25;;;8.80;99.90;;;;;;4979783;28;20105;-85
2022/05/05 00:31:50;;;;;;;19.40;8.18;;;8.80;99.90;;;;;;4977363;28;20058;-85
2022/05/05 00:34:16;;;;;;;15.70;8.77;;;8.70;99.90;;;;;;4972804;28;20057;-85
2022/05/05 00:36:42;;;;;;;18.30;8.95;;;8.70;99.90;;;;;;4974201;28;20080;-85
2022/05/05 00:39:08;;;;;;;21.20;9.63;;;8.70;99.90;;;;;;4979572;28;20026;-85
2022/05/05 00:41:41;;;;;;;17.85;8.65;;;8.60;99.90;;;;;;4978343;28;20041;-85
2022/05/05 00:44:07;;;;;;;15.57;8.68;;;8.60;99.90;;;;;;4972560;28;20065;-85
2022/05/05 00:46:33;;;;;;;21.40;9.77;;;8.60;99.90;;;;;;4978002;28;20503;-85
2022/05/05 00:48:59;;;;;;;20.38;9.25;;;8.50;99.90;;;;;;4975613;28;20054;-85
2022/05/05 00:51:25;;;;;;;21.80;9.77;;;8.50;99.90;;;;;;4979140;28;20080;-85
2022/05/05 00:53:51;;;;;;;22.13;9.77;;;8.50;99.90;;;;;;4988797;28;20138;-85
2022/05/05 00:56:17;;;;;;;24.10;9.63;;;8.40;99.90;;;;;;4981802;28;20069;-84
2022/05/05 00:58:44;;;;;;;20.50;9.68;;;8.40;99.90;;;;;;4973009;28;20027;-85
2022/05/05 01:01:11;;;;;;;22.25;10.13;;;8.30;99.90;;;;;;4991178;28;20050;-85
2022/05/05 01:03:37;;;;;;;25.20;10.77;;;8.30;99.90;;;;;;4973841;28;20036;-85
2022/05/05 01:06:05;;;;;;;18.10;9.43;;;8.30;99.90;;;;;;4978482;28;20022;-85
2022/05/05 01:08:32;;;;;;;20.40;10.35;;;8.20;99.90;;;;;;4995610;28;20026;-85
2022/05/05 01:10:58;;;;;;;17.15;8.88;;;8.20;99.90;;;;;;4977431;28;20034;-85
2022/05/05 01:13:25;;;;;;;19.13;9.20;;;8.20;99.90;;;;;;4975540;28;20443;-85
2022/05/05 01:15:51;;;;;;;23.50;9.70;;;8.10;99.90;;;;;;4970990;28;20105;-85
2022/05/05 01:18:17;;;;;;;22.95;11.07;;;8.10;99.90;;;;;;4995266;28;20034;-85
2022/05/05 01:20:48;;;;;;;20.15;10.43;;;8.00;99.90;;;;;;4977541;28;20417;-85
2022/05/05 01:23:15;;;;;;;19.50;10.48;;;8.00;99.90;;;;;;4977630;28;20050;-85
2022/05/05 01:28:25;;;;;;;24.30;10.93;;;8.10;99.90;;;;;;4995715;28;20068;-85
2022/05/05 01:30:52;;;;;;;22.40;11.48;;;8.10;99.90;;;;;;4973879;28;20451;-85
2022/05/05 01:33:27;;;;;;;19.63;11.20;;;8.00;99.90;;;;;;4968840;28;20049;-85
2022/05/05 01:35:57;;;;;;;24.40;11.63;;;8.10;99.90;;;;;;4978628;28;20042;-85
2022/05/05 01:38:24;;;;;;;23.75;11.52;;;8.10;99.90;;;;;;4977671;28;20046;-85
2022/05/05 01:40:50;;;;;;;21.42;11.30;;;8.00;99.90;;;;;;4977824;28;20065;-85
2022/05/05 01:43:17;;;;;;;23.00;11.80;;;8.10;99.90;;;;;;4976147;28;20034;-85
2022/05/05 01:45:43;;;;;;;21.02;11.63;;;8.10;99.90;;;;;;4971975;28;20493;-85
2022/05/05 01:48:09;;;;;;;21.08;11.50;;;8.00;99.90;;;;;;4975782;28;20061;-85
2022/05/05 01:50:35;;;;;;;25.85;11.98;;;8.00;99.90;;;;;;4976655;28;20081;-86
2022/05/05 01:53:01;;;;;;;23.90;11.85;;;8.00;99.90;;;;;;4982765;28;20018;-86
2022/05/05 01:55:27;;;;;;;21.67;11.13;;;8.00;99.90;;;;;;4974732;28;20064;-86
2022/05/05 01:57:53;;;;;;;22.05;12.25;;;8.00;99.90;;;;;;4971323;28;20033;-86
2022/05/05 02:00:20;;;;;;;24.90;11.25;;;7.90;99.90;;;;;;4995221;28;20022;-86
2022/05/05 02:02:46;;;;;;;24.25;11.38;;;7.90;99.90;;;;;;4977220;28;20026;-86
2022/05/05 02:05:13;;;;;;;24.42;12.43;;;7.80;99.90;;;;;;4973015;28;20529;-86
2022/05/05 02:07:40;;;;;;;25.33;12.73;;;7.80;99.90;;;;;;4976895;28;20088;-86
2022/05/05 02:10:09;;;;;;;20.55;11.68;;;7.80;99.90;;;;;;4968925;28;20066;-86
2022/05/05 02:12:38;;;;;;;22.65;11.60;;;7.70;99.90;;;;;;4971771;28;20039;-86
2022/05/05 02:15:08;;;;;;;21.65;11.10;;;7.70;99.90;;;;;;4973684;28;20022;-86
2022/05/05 02:17:41;;;;;;;24.88;11.65;;;7.60;99.90;;;;;;4975240;28;20031;-85
2022/05/05 02:20:08;;;;;;;;;;;7.60;99.90;;;;;;4975457;28;20022;-85
2022/05/05 02:22:34;;;;;;;22.25;10.52;;;7.50;99.90;;;;;;4977240;28;19909;-85
2022/05/05 02:24:59;;;;;;;24.50;11.35;;;7.40;99.90;;;;;;4976611;28;20034;-85
2022/05/05 02:27:25;;;;;;;18.67;10.90;;;7.40;99.90;;;;;;4987009;28;20133;-86
2022/05/05 02:29:51;;;;;;;21.67;11.57;;;7.40;99.90;;;;;;4964147;28;20391;-86
2022/05/05 02:32:18;;;;;;;20.60;11.70;;;7.30;99.90;;;;;;4967512;28;20133;-86
2022/05/05 02:34:44;;;;;;;26.90;12.27;;;7.20;99.90;;;;;;4991792;28;20113;-85
2022/05/05 02:39:54;;;;;;;23.33;11.73;;;7.20;99.90;;;;;;4984288;28;20459;-85
2022/05/05 02:42:20;;;;;;;27.42;11.73;;;7.10;99.90;;;;;;4977596;28;20054;-85
2022/05/05 02:44:46;;;;;;;25.50;13.02;;;7.00;99.90;;;;;;4993185;28;20030;-86
2022/05/05 02:47:12;;;;;;;29.17;13.93;;;7.00;99.90;;;;;;4991704;28;20069;-86
2022/05/05 02:49:37;;;;;;;23.70;12.52;;;7.00;99.90;;;;;;4976083;28;20026;-85
2022/05/05 02:52:04;;;;;;;28.92;13.60;;;7.00;99.90;;;;;;4975822;28;20112;-86
2022/05/05 02:54:50;;;;;;;22.63;11.25;;;6.90;99.90;;;;;;4983075;28;20097;-86
2022/05/05 02:57:22;;;;;;;21.55;10.50;;;7.00;99.90;;;;;;4979330;28;20433;-85
2022/05/05 02:59:47;;;;;;;23.20;10.83;;;6.90;99.90;;;;;;4974750;28;20033;-85
2022/05/05 03:02:13;;;;;;;25.73;11.15;;;7.00;99.90;;;;;;4975243;28;20026;-85
2022/05/05 03:04:39;;;;;;;28.55;11.63;;;7.00;99.90;;;;;;4964806;28;20023;-86
2022/05/05 03:07:05;;;;;;;26.00;11.95;;;7.10;99.90;;;;;;4974678;28;20022;-86
2022/05/05 03:09:31;;;;;;;24.42;11.82;;;7.20;99.90;;;;;;4976147;28;20019;-87
2022/05/05 03:11:56;;;;;;;21.45;11.80;;;7.10;99.90;;;;;;4969963;28;20038;-86
2022/05/05 03:14:22;;;;;;;22.15;11.75;;;7.20;99.90;;;;;;4976210;28;20056;-86
2022/05/05 03:16:47;;;;;;;20.95;11.65;;;7.20;99.90;;;;;;4976229;28;20030;-85
2022/05/05 03:19:13;;;;;;;27.67;12.15;;;7.30;99.90;;;;;;4976029;28;20673;-86
2022/05/05 03:21:38;;;;;;;23.33;11.05;;;7.30;99.90;;;;;;4969151;28;20096;-86
2022/05/05 03:24:05;;;;;;;19.40;11.20;;;7.30;99.90;;;;;;4974193;28;20022;-86
2022/05/05 03:26:30;;;;;;;22.55;11.88;;;7.30;99.90;;;;;;4975848;28;20516;-85
2022/05/05 03:28:56;;;;;;;28.75;12.93;;;7.30;99.90;;;;;;4976484;28;20026;-85
2022/05/05 03:31:22;;;;;;;27.98;12.43;;;7.30;99.90;;;;;;4975707;28;20495;-86
2022/05/05 03:33:48;;;;;;;29.83;13.05;;;7.30;99.90;;;;;;4975557;28;20034;-86
2022/05/05 03:36:13;;;;;;;26.30;13.25;;;7.30;99.90;;;;;;4978072;28;20089;-85
2022/05/05 03:38:39;;;;;;;27.30;13.75;;;7.30;99.90;;;;;;4976181;28;20041;-85
2022/05/05 03:41:05;;;;;;;27.20;12.77;;;7.30;99.90;;;;;;4975948;28;20026;-86
2022/05/05 03:43:31;;;;;;;25.30;12.18;;;7.30;99.90;;;;;;4966174;28;20037;-86
2022/05/05 03:45:57;;;;;;;29.10;12.82;;;7.20;99.90;;;;;;4983795;28;20053;-86
2022/05/05 03:48:22;;;;;;;28.58;12.65;;;7.20;99.90;;;;;;4985950;28;20027;-86
2022/05/05 03:50:48;;;;;;;23.95;12.13;;;7.20;99.90;;;;;;4993220;28;20058;-86
2022/05/05 03:53:13;;;;;;;25.73;12.63;;;7.20;99.90;;;;;;4965675;28;20093;-86
2022/05/05 03:55:39;;;;;;;28.58;12.63;;;7.20;99.90;;;;;;4973115;28;20466;-86
2022/05/05 03:58:04;;;;;;;25.27;12.68;;;7.10;99.90;;;;;;4976045;28;20030;-86
2022/05/05 04:00:30;;;;;;;25.70;13.10;;;7.20;99.90;;;;;;4975561;28;20407;-86
2022/05/05 04:05:39;;;;;;;24.75;12.48;;;7.10;99.90;;;;;;4993258;28;20121;-86
2022/05/05 04:08:05;;;;;;;24.10;12.40;;;7.10;99.90;;;;;;4967347;28;20093;-86
2022/05/05 04:10:31;;;;;;;25.50;14.18;;;7.10;99.90;;;;;;4975634;28;20030;-86
2022/05/05 04:12:57;;;;;;;24.05;12.05;;;7.10;99.90;;;;;;4972617;28;20058;-85
2022/05/05 04:15:23;;;;;;;29.42;12.73;;;7.10;99.90;;;;;;4965169;28;20026;-86
2022/05/05 04:17:50;;;;;;;27.95;13.18;;;7.10;99.90;;;;;;4989775;28;20054;-85
2022/05/05 04:20:15;;;;;;;27.27;13.07;;;7.10;99.90;;;;;;4992562;28;20026;-85
2022/05/05 04:22:41;;;;;;;22.42;13.07;;;7.10;99.90;;;;;;4973613;28;20026;-86
2022/05/05 04:25:08;;;;;;;28.77;13.95;;;7.10;99.90;;;;;;4985856;28;20033;-86
2022/05/05 04:27:34;;;;;;;27.15;13.70;;;7.10;99.90;;;;;;4967808;28;20031;-86
2022/05/05 04:30:01;;;;;;;21.58;12.82;;;7.10;99.90;;;;;;4986687;28;20053;-86
2022/05/05 04:32:27;;;;;;;30.00;13.55;;;7.10;99.90;;;;;;4962029;28;20047;-86
2022/05/05 04:34:54;;;;;;;27.27;13.73;;;7.10;99.90;;;;;;4963439;28;20027;-86
2022/05/05 04:37:22;;;;;;;25.88;12.45;;;7.10;99.90;;;;;;4971348;28;20101;-85
2022/05/05 04:39:48;;;;;;;26.98;13.30;;;7.10;99.90;;;;;;4970163;28;20094;-85
2022/05/05 04:42:14;;;;;;;25.08;12.63;;;7.10;99.90;;;;;;4969454;28;20030;-86
2022/05/05 04:44:39;;;;;;;25.02;13.38;;;7.10;99.90;;;;;;4972780;28;20027;-86
2022/05/05 04:47:05;;;;;;;27.00;13.25;;;7.10;99.90;;;;;;4966891;28;20122;-86
2022/05/05 04:49:31;;;;;;;26.10;13.77;;;7.10;99.90;;;;;;4960883;28;20027;-85
2022/05/05 04:51:57;;;;;;;27.73;13.63;;;7.10;99.90;;;;;;4964723;28;20117;-85
2022/05/05 04:54:22;;;;;;;24.40;11.68;;;7.10;99.90;;;;;;4964712;28;20443;-85
2022/05/05 04:56:48;;;;;;;23.23;12.07;;;7.10;99.90;;;;;;4958435;28;20038;-86
2022/05/05 04:59:14;;;;;;;30.55;13.07;;;7.10;99.90;;;;;;4966143;28;20034;-86
2022/05/05 05:01:39;;;;;;;25.08;12.75;;;7.10;99.90;;;;;;4975801;28;20038;-86
2022/05/05 05:04:06;;;;;;;27.17;12.23;;;7.10;99.90;;;;;;4971152;28;20487;-87
2022/05/05 05:06:32;;;;;;;28.48;11.90;;;7.10;99.90;;;;;;4971622;28;20474;-86
2022/05/05 05:08:58;;;;;;;22.27;11.85;;;7.20;99.90;;;;;;4974949;28;20109;-87
2022/05/05 05:11:23;;;;;;;21.75;11.93;;;7.20;99.90;;;;;;4975166;28;20039;-86
2022/05/05 05:13:49;;;;;;;22.52;11.82;;;7.20;99.90;;;;;;4974756;28;20031;-87
2022/05/05 05:16:15;;;;;;;29.05;12.70;;;7.20;99.90;;;;;;4973658;28;20123;-86
2022/05/05 05:18:40;;;;;;;23.33;11.95;;;7.30;99.90;;;;;;4974192;28;20035;-86
2022/05/05 05:21:06;;;;;;;28.95;13.25;;;7.30;99.90;;;;;;4974512;28;20018;-87
2022/05/05 05:23:32;;;;;;;24.98;13.00;;;7.30;99.90;;;;;;4976726;28;20478;-86
2022/05/05 05:25:57;;;;;;;28.05;12.52;;;7.40;99.90;;;;;;4974932;28;20035;-85
2022/05/05 05:28:23;;;;;;;25.67;13.48;;;7.50;99.90;;;;;;4975509;28;20085;-86
2022/05/05 05:30:49;;;;;;;28.17;13.95;;;7.60;99.90;;;;;;4974455;28;20049;-85
2022/05/05 05:33:14;;;;;;;26.30;13.13;;;7.70;99.90;;;;;;4969367;28;20047;-85
2022/05/05 05:35:40;;;;;;;30.30;12.88;;;7.80;99.90;;;;;;4968050;28;20034;-86
2022/05/05 05:38:05;;;;;;;25.13;12.93;;;7.90;99.90;;;;;;4979146;28;20088;-85
2022/05/05 05:40:31;;;;;;;21.00;12.45;;;8.10;99.90;;;;;;4974584;28;20034;-86
2022/05/05 05:42:58;;;;;;;28.65;14.15;;;8.20;99.90;;;;;;4972434;28;20186;-85
2022/05/05 05:45:24;;;;;;;24.52;13.15;;;8.30;99.90;;;;;;4969178;28;20427;-86
2022/05/05 05:47:49;;;;;;;23.88;13.20;;;8.30;99.90;;;;;;4970040;28;20058;-86
2022/05/05 05:50:15;;;;;;;25.58;13.52;;;8.40;99.90;;;;;;4972071;28;20498;-87
2022/05/05 05:52:40;;;;;;;22.52;11.75;;;8.50;99.90;;;;;;4977825;28;20496;-85
2022/05/05 05:55:06;;;;;;;22.70;12.90;;;8.60;99.90;;;;;;4977674;28;20038;-86
2022/05/05 05:57:32;;;;;;;22.70;12.30;;;8.80;99.90;;;;;;4977147;28;20027;-86
2022/05/05 05:59:57;;;;;;;21.92;12.13;;;9.00;99.90;;;;;;4976201;28;20034;-86
2022/05/05 06:05:07;;;;;;;22.30;12.48;;;9.40;99.90;;;;;;4968352;28;20034;-86
2022/05/05 06:07:33;;;;;;;21.67;12.95;;;9.60;99.90;;;;;;4976218;28;20030;-87
2022/05/05 06:09:58;;;;;;;21.25;11.82;;;9.70;99.90;;;;;;4974138;28;20030;-86
2022/05/05 06:12:24;;;;;;;25.80;12.50;;;9.80;99.90;;;;;;4977267;28;20122;-86
2022/05/05 06:14:49;;;;;;;29.27;13.68;;;10.00;99.90;;;;;;4977799;28;21388;-86
2022/05/05 06:17:15;;;;;;;26.77;14.57;;;10.10;99.90;;;;;;4975240;28;20085;-86
2022/05/05 06:19:43;;;;;;;26.50;14.02;;;10.10;99.90;;;;;;4972734;28;20130;-86
2022/05/05 06:22:09;;;;;;;20.48;12.80;;;10.20;99.90;;;;;;4973278;28;20026;-86
2022/05/05 06:24:35;;;;;;;23.52;13.27;;;10.50;99.90;;;;;;4975163;28;20027;-86
2022/05/05 06:27:00;;;;;;;19.05;12.65;;;10.60;99.90;;;;;;4965712;28;20122;-85
2022/05/05 06:29:26;;;;;;;20.27;12.18;;;10.80;99.90;;;;;;4963779;28;20463;-85
2022/05/05 06:31:52;;;;;;;22.38;11.90;;;11.00;99.90;;;;;;4974185;28;20051;-86
2022/05/05 06:34:17;;;;;;;22.92;12.35;;;11.30;99.90;;;;;;4973417;28;20019;-85
2022/05/05 06:36:44;;;;;;;23.33;12.88;;;11.50;99.90;;;;;;4973629;28;20061;-85
2022/05/05 06:39:10;;;;;;;22.95;11.82;;;11.70;99.90;;;;;;4973922;28;20495;-85
2022/05/05 06:41:35;;;;;;;19.00;10.38;;;11.90;99.90;;;;;;4973946;28;20038;-86
2022/05/05 06:44:01;;;;;;;21.05;10.73;;;12.10;99.90;;;;;;4973984;28;20069;-86
2022/05/05 06:46:27;;;;;;;20.40;10.40;;;12.30;99.90;;;;;;4973113;28;20037;-85
2022/05/05 06:48:53;;;;;;;28.15;10.02;;;12.40;99.90;;;;;;4973156;28;20034;-85
2022/05/05 06:51:19;;;;;;;21.80;10.40;;;12.60;99.90;;;;;;4972705;28;20079;-85
2022/05/05 06:53:44;;;;;;;20.52;10.00;;;12.70;99.90;;;;;;4970697;28;20058;-86
2022/05/05 06:56:10;;;;;;;19.13;10.50;;;12.90;99.90;;;;;;4973365;28;20023;-86
2022/05/05 06:58:35;;;;;;;15.52;9.32;;;13.10;99.90;;;;;;4971017;28;20034;-86
2022/05/05 07:03:44;;;;;;;14.75;8.10;;;13.40;99.90;;;;;;4968088;28;20387;-86
2022/05/05 07:06:10;;;;;;;19.73;8.48;;;13.70;99.90;;;;;;4973149;28;20031;-86
2022/05/05 07:11:22;;;;;;;15.65;9.40;;;14.10;99.90;;;;;;4973239;28;20061;-86
2022/05/05 07:13:47;;;;;;;16.13;8.18;;;14.30;99.90;;;;;;4967174;28;20443;-83
2022/05/05 07:16:13;;;;;;;16.73;7.85;;;14.50;99.90;;;;;;4967163;28;20023;-83
2022/05/05 07:18:39;;;;;;;18.80;8.38;;;14.60;99.90;;;;;;4969423;28;20064;-84
2022/05/05 07:21:05;;;;;;;14.57;8.20;;;14.70;99.90;;;;;;4970920;28;20026;-84
2022/05/05 07:23:31;;;;;;;14.88;7.45;;;14.80;99.90;;;;;;4972807;28;20117;-84
2022/05/05 07:25:56;;;;;;;14.95;7.80;;;14.80;99.90;;;;;;4973727;28;20483;-84
2022/05/05 07:28:22;;;;;;;9.98;6.72;;;14.80;99.90;;;;;;4972731;28;20027;-84
2022/05/05 07:30:47;;;;;;;15.07;7.88;;;14.90;99.90;;;;;;4969310;28;20031;-84
2022/05/05 07:33:13;;;;;;;15.07;7.80;;;15.20;99.80;;;;;;4969205;28;20051;-84
2022/05/05 07:35:38;;;;;;;12.50;6.85;;;15.40;98.80;;;;;;4972480;28;20034;-84
2022/05/05 07:38:05;;;;;;;29.45;6.68;;;15.40;97.90;;;;;;4971615;28;20498;-84
2022/05/05 07:40:30;;;;;;;14.50;6.75;;;15.50;97.40;;;;;;4965465;28;20117;-84
2022/05/05 07:42:56;;;;;;;13.88;6.47;;;15.60;97.10;;;;;;4972613;28;20126;-83
2022/05/05 07:45:22;;;;;;;13.02;6.32;;;15.60;97.00;;;;;;4970504;28;20027;-84
2022/05/05 07:47:48;;;;;;;13.13;7.07;;;15.70;96.60;;;;;;4972666;28;20038;-84
2022/05/05 07:50:14;;;;;;;11.88;6.40;;;15.80;96.30;;;;;;4972173;28;20023;-84
2022/05/05 07:52:40;;;;;;;14.50;6.47;;;15.90;96.10;;;;;;4972969;28;20050;-84
2022/05/05 07:55:06;;;;;;;14.95;7.38;;;16.10;95.80;;;;;;4972873;28;20019;-84
2022/05/05 07:57:32;;;;;;;13.38;6.70;;;16.30;95.10;;;;;;4972849;28;20058;-84
2022/05/05 07:59:57;;;;;;;14.90;7.68;;;16.50;94.20;;;;;;4973738;28;20070;-83
2022/05/05 08:02:23;;;;;;;14.40;7.85;;;16.60;93.70;;;;;;4972266;28;20029;-84
2022/05/05 08:04:49;;;;;;;13.10;6.72;;;16.80;92.90;;;;;;4972860;28;20137;-84
2022/05/05 08:07:15;;;;;;;15.55;7.30;;;16.80;92.20;;;;;;4972279;28;20034;-84
2022/05/05 08:09:40;;;;;;;18.10;7.85;;;17.00;92.10;;;;;;4970297;28;20034;-85
2022/05/05 08:12:06;;;;;;;11.65;7.25;;;17.10;91.10;;;;;;4968023;28;20402;-84
2022/05/05 08:14:33;;;;;;;15.75;7.40;;;17.30;90.90;;;;;;4969165;28;20038;-84
2022/05/05 08:16:59;;;;;;;14.35;7.60;;;17.40;90.00;;;;;;4972445;28;20193;-84
2022/05/05 08:19:24;;;;;;;20.80;8.25;;;17.40;90.00;;;;;;4972646;28;20054;-83
2022/05/05 08:21:50;;;;;;;15.75;8.38;;;17.60;89.40;;;;;;4972543;28;20117;-85
2022/05/05 08:29:45;;;;;;;20.38;11.18;;;18.10;86.50;;;;;;4973537;28;20054;-85
2022/05/05 08:32:11;;;;;;;18.25;10.05;;;18.30;86.10;;;;;;4971584;28;20051;-84
2022/05/05 08:34:36;;;;;;;21.63;10.57;;;18.60;85.00;;;;;;4974997;28;20027;-84
2022/05/05 08:37:02;;;;;;;20.38;10.05;;;18.90;82.80;;;;;;4979914;28;20464;-84
2022/05/05 08:39:28;;;;;;;19.85;11.70;;;18.90;80.90;;;;;;4973152;28;20086;-85
2022/05/05 08:41:54;;;;;;;16.83;10.77;;;18.90;80.70;;;;;;4970529;28;20038;-84
2022/05/05 08:44:20;;;;;;;20.55;11.10;;;19.00;80.80;;;;;;4976027;28;20023;-85
2022/05/05 08:46:53;;;;;;;17.58;9.77;;;19.20;80.20;;;;;;4975459;28;20105;-84
2022/05/05 08:49:23;;;;;;;17.85;10.32;;;19.40;79.90;;;;;;4975136;28;20055;-85
2022/05/05 08:51:52;;;;;;;18.92;11.57;;;19.60;78.80;;;;;;4968956;28;20385;-85
2022/05/05 08:54:21;;;;;;;20.08;11.88;;;19.80;77.70;;;;;;4967591;28;20031;-85
2022/05/05 08:56:50;;;;;;;20.38;11.98;;;19.90;76.90;;;;;;4976280;28;20066;-85
2022/05/05 08:59:18;;;;;;;19.00;12.05;;;19.90;75.80;;;;;;4971946;28;20023;-84
2022/05/05 09:01:44;;;;;;;22.92;11.20;;;19.90;75.40;;;;;;4974379;28;20054;-85
2022/05/05 09:04:10;;;;;;;18.52;10.35;;;20.00;75.20;;;;;;4975640;28;20462;-84
2022/05/05 09:06:49;;;;;;;17.90;12.35;;;20.10;75.40;;;;;;4975505;28;20026;-85
2022/05/05 09:09:30;;;;;;;20.58;11.52;;;20.10;74.80;;;;;;4976782;28;20037;-85
2022/05/05 09:12:19;;;;;;;20.13;11.52;;;20.20;74.20;;;;;;4959638;28;20035;-84
2022/05/05 09:14:48;;;;;;;20.67;12.13;;;20.20;73.90;;;;;;4975637;28;20498;-84
2022/05/05 09:17:17;;;;;;;20.33;12.50;;;20.20;74.40;;;;;;4974893;28;20099;-85
2022/05/05 09:19:48;;;;;;;20.67;11.82;;;20.20;73.20;;;;;;4975554;28;20031;-85
2022/05/05 09:22:17;;;;;;;19.08;12.15;;;20.10;73.20;;;;;;4974586;28;20022;-84
2022/05/05 09:24:51;;;;;;;21.13;12.70;;;20.10;73.60;;;;;;4975372;28;20637;-85
2022/05/05 09:27:26;;;;;;;22.45;12.88;;;20.10;72.70;;;;;;4975131;28;20502;-85
2022/05/05 09:30:06;;;;;;;21.95;13.90;;;20.10;72.70;;;;;;4974235;28;20145;-84
2022/05/05 09:32:40;;;;;;;21.88;12.23;;;19.90;72.30;;;;;;4974129;28;20459;-85
2022/05/05 09:35:14;;;;;;;20.77;12.80;;;19.80;72.90;;;;;;4974726;28;20031;-85
2022/05/05 09:37:50;;;;;;;19.52;12.10;;;19.90;73.00;;;;;;4968897;28;20118;-85
2022/05/05 09:40:18;;;;;;;23.13;13.55;;;19.90;72.90;;;;;;4974710;28;20080;-85
2022/05/05 09:42:46;;;;;;;19.40;12.52;;;20.00;72.60;;;;;;4965894;28;20034;-85
2022/05/05 09:45:29;;;;;;;20.67;12.90;;;19.90;72.10;;;;;;4974031;28;20034;-84
2022/05/05 09:48:03;;;;;;;19.10;11.90;;;19.80;72.40;;;;;;4973485;28;20039;-85
2022/05/05 09:50:31;;;;;;;21.17;12.75;;;19.80;72.70;;;;;;4974282;28;20030;-85
2022/05/05 09:58:36;;;;;;;19.48;12.70;;;19.60;72.80;;;;;;4975801;28;20132;-85
2022/05/05 10:01:10;;;;;;;17.08;10.05;;;19.60;72.70;;;;;;4963190;28;20030;-86
2022/05/05 10:04:02;;;;;;;20.15;12.00;;;19.60;72.90;;;;;;4971481;28;20034;-85
2022/05/05 10:06:31;;;;;;;16.45;10.68;;;19.70;72.50;;;;;;4975244;28;20050;-86
2022/05/05 10:09:01;;;;;;;25.73;12.70;;;19.80;72.90;;;;;;4974606;28;20022;-86
2022/05/05 10:11:27;;;;;;;20.42;12.52;;;19.90;72.30;;;;;;4971906;28;20035;-85
2022/05/05 10:13:53;;;;;;;20.98;13.77;;;19.90;72.30;;;;;;4975319;28;20035;-86
2022/05/05 10:16:20;;;;;;;18.75;13.15;;;19.90;72.70;;;;;;4974264;28;20031;-86
2022/05/05 10:18:45;;;;;;;18.45;12.30;;;20.00;72.30;;;;;;4975036;28;20118;-85
2022/05/05 10:21:51;;;;;;;21.33;13.38;;;20.20;72.10;;;;;;4971844;28;20058;-86
2022/05/05 10:24:38;;;;;;;16.77;12.40;;;20.40;72.00;;;;;;4974121;28;20109;-84
2022/05/05 10:27:04;;;;;;;17.15;12.20;;;20.50;72.20;;;;;;4977872;28;20395;-84
2022/05/05 10:29:39;;;;;;;19.67;12.75;;;20.50;72.10;;;;;;4974356;28;20518;-85
2022/05/05 10:32:18;;;;;;;20.42;11.55;;;20.60;71.30;;;;;;4973407;28;20526;-85
2022/05/05 10:34:45;;;;;;;19.38;12.80;;;20.50;71.50;;;;;;4974224;28;20035;-86
2022/05/05 10:37:31;;;;;;;18.92;13.00;;;20.60;71.00;;;;;;4974037;28;20441;-84
2022/05/05 10:39:57;;;;;;;22.08;13.13;;;20.80;71.30;;;;;;4973627;28;20031;-84
2022/05/05 10:42:33;;;;;;;18.15;12.82;;;21.10;70.90;;;;;;4980075;28;20140;-85
2022/05/05 10:45:09;;;;;;;19.80;13.20;;;21.30;70.30;;;;;;4973605;28;20402;-84
2022/05/05 10:47:58;;;;;;;21.38;13.45;;;21.40;69.00;;;;;;4974186;28;20031;-85
2022/05/05 10:50:56;;;;;;;21.83;15.00;;;21.40;68.50;;;;;;4973939;28;20062;-85
2022/05/05 10:53:25;;;;;;;24.63;14.60;;;21.10;69.00;;;;;;4970861;28;20031;-85
2022/05/05 10:55:51;;;;;;;21.17;13.93;;;20.80;69.20;;;;;;4973192;28;20427;-85
2022/05/05 10:58:54;;;;;;;25.83;16.45;;;20.80;70.30;;;;;;4973407;28;20121;-86
2022/05/05 11:01:19;;;;;;;26.55;17.63;;;20.60;70.60;;;;;;4973649;28;20027;-85
2022/05/05 11:04:17;;;;;;;26.20;18.15;;;20.60;71.30;;;;;;4973542;28;20031;-85
2022/05/05 11:06:44;;;;;;;29.20;15.80;;;20.80;70.80;;;;;;4963208;28;20035;-85
2022/05/05 11:09:27;;;;;;;33.33;20.50;;;21.00;70.90;;;;;;4973231;28;20035;-85
2022/05/05 11:12:29;;;;;;;30.67;20.13;;;20.90;70.50;;;;;;4984843;28;20218;-85
2022/05/05 11:23:47;;;;;;;33.17;22.00;;;21.20;71.60;;;;;;4973866;28;20041;-85
2022/05/05 11:26:17;;;;;;;28.30;19.58;;;21.20;71.00;;;;;;4971760;28;20121;-86
2022/05/05 11:28:43;;;;;;;28.58;19.67;;;21.10;72.00;;;;;;4973883;28;20027;-85
2022/05/05 11:31:23;;;;;;;25.42;18.73;;;20.90;71.80;;;;;;4973353;28;20029;-86
2022/05/05 11:33:57;;;;;;;28.67;18.67;;;21.00;72.00;;;;;;4972935;28;20105;-86
2022/05/05 11:36:31;;;;;;;29.13;19.92;;;21.10;72.00;;;;;;4978157;28;20027;-86
2022/05/05 11:38:57;;;;;;;24.23;18.92;;;21.20;72.10;;;;;;4972501;28;20027;-86
2022/05/05 11:41:23;;;;;;;29.90;19.52;;;21.30;72.20;;;;;;4970953;28;20118;-84
2022/05/05 11:44:24;;;;;;;27.45;17.75;;;21.20;72.20;;;;;;4972989;28;20045;-84
2022/05/05 11:46:41;;;;;;;25.70;18.20;;;21.10;72.50;;;;;;4971528;28;20069;-84
2022/05/05 11:49:08;;;;;;;31.02;20.17;;;20.70;72.70;;;;;;4973232;28;20023;-85
2022/05/05 11:51:35;;;;;;;32.13;19.52;;;20.50;74.10;;;;;;4973736;28;20051;-85
2022/05/05 11:54:07;;;;;;;28.60;20.63;;;20.60;75.00;;;;;;4971920;28;20546;-86
2022/05/05 11:56:34;;;;;;;26.50;17.63;;;20.60;74.70;;;;;;4977214;28;20038;-86
2022/05/05 12:02:04;;;;;;;29.50;19.10;;;20.30;74.30;;;;;;4974371;28;20442;-85
2022/05/05 12:04:30;;;;;;;29.98;18.50;;;20.30;75.10;;;;;;4973156;28;20037;-85
2022/05/05 12:06:58;;;;;;;28.55;18.85;;;20.20;75.20;;;;;;4973133;28;20039;-85
2022/05/05 12:09:23;;;;;;;29.85;19.00;;;20.00;75.40;;;;;;4971790;28;20019;-85
2022/05/05 12:11:49;;;;;;;29.95;18.88;;;19.90;75.30;;;;;;4974486;28;20130;-86
2022/05/05 12:14:18;;;;;;;28.38;17.42;;;19.90;75.80;;;;;;4972944;28;20030;-85
2022/05/05 12:16:43;;;;;;;26.90;17.17;;;20.00;75.40;;;;;;4972754;28;20022;-86
2022/05/05 12:19:13;;;;;;;23.00;16.73;;;20.10;75.50;;;;;;4971629;28;20019;-85
2022/05/05 12:21:54;;;;;;;23.70;15.10;;;20.20;74.90;;;;;;4972565;28;20027;-86
2022/05/05 12:24:22;;;;;;;33.15;16.67;;;20.30;74.80;;;;;;4972240;28;20026;-86
2022/05/05 12:26:48;;;;;;;23.35;16.88;;;20.30;74.60;;;;;;4974079;28;20391;-88
2022/05/05 12:29:15;;;;;;;25.30;16.08;;;20.20;74.50;;;;;;4973688;28;20018;-86
2022/05/05 12:31:52;;;;;;;24.00;15.65;;;20.20;75.00;;;;;;4970251;28;20058;-88
2022/05/05 12:34:27;;;;;;;24.33;16.08;;;20.40;75.10;;;;;;4963799;28;20019;-88
2022/05/05 12:37:28;;;;;;;22.38;14.98;;;20.60;74.00;;;;;;4971320;28;20027;-88
2022/05/05 12:40:03;;;;;;;17.83;13.00;;;20.90;73.80;;;;;;4938607;29;20038;-88
2022/05/05 12:42:51;;;;;;;21.17;14.15;;;21.00;72.10;;;;;;4969106;28;20066;-88
2022/05/05 12:45:20;;;;;;;21.08;13.05;;;21.10;71.30;;;;;;4965449;28;20395;-88
2022/05/05 12:47:47;;;;;;;58.63;15.45;;;21.20;71.10;;;;;;4967092;28;20023;-87
2022/05/05 12:50:51;;;;;;;22.00;14.35;;;21.10;71.00;;;;;;4962835;28;20032;-87
2022/05/05 13:01:37;;;;;;;24.63;15.90;;;21.30;71.60;;;;;;4979433;28;20094;-87
2022/05/05 13:04:05;;;;;;;20.85;15.40;;;21.20;70.40;;;;;;4971868;28;20034;-87
2022/05/05 13:06:31;;;;;;;19.85;14.55;;;21.20;70.70;;;;;;4975679;28;20027;-86
2022/05/05 13:08:57;;;;;;;22.73;14.13;;;21.20;70.60;;;;;;4970960;28;20038;-87
2022/05/05 13:11:23;;;;;;;28.67;15.82;;;21.30;70.70;;;;;;4973252;28;20038;-88
2022/05/05 13:13:50;;;;;;;23.30;15.57;;;21.40;70.50;;;;;;4974944;28;20110;-91
2022/05/05 13:16:16;;;;;;;15.38;11.48;;;21.60;70.20;;;;;;4974669;28;20047;-91
2022/05/05 13:18:42;;;;;;;18.58;12.38;;;21.80;69.80;;;;;;4973142;28;20098;-91
2022/05/05 13:21:08;;;;;;;24.55;16.23;;;21.90;69.40;;;;;;4982741;28;20054;-91
2022/05/05 13:23:34;;;;;;;18.83;15.10;;;21.90;69.00;;;;;;4973141;28;20027;-91
2022/05/05 13:26:00;;;;;;;24.63;17.02;;;21.80;69.40;;;;;;4978125;28;20498;-91
2022/05/05 13:28:34;;;;;;;23.08;16.08;;;21.50;69.60;;;;;;4972484;28;20031;-91
2022/05/05 13:30:59;;;;;;;18.85;13.20;;;21.30;69.80;;;;;;4960925;28;20086;-92